sensor_id;sensor_type;location;lat;lon;timestamp;pressure;altitude;pressure_sealevel;temperature;humidity
10014;BME280;45684;48.358;10.746;2023-04-16T00:01:15;95981.34;;;6.23;100.00
10014;BME280;45684;48.358;10.746;2023-04-16T00:03:43;95986.38;;;6.30;100.00
10014;BME280;45684;48.358;10.746;2023-04-16T00:06:12;95986.16;;;6.26;100.00
10014;BME280;45684;48.358;10.746;2023-04-16T00:08:40;95985.22;;;6.17;100.00
10014;BME280;45684;48.358;10.746;2023-04-16T00:11:10;95988.91;;;6.21;100.00
10014;BME280;45684;48.358;10.746;2023-04-16T00:13:38;95980.56;;;6.23;100.00
10014;BME280;45684;48.358;10.746;2023-04-16T00:16:06;95977.00;;;6.27;100.00
10014;BME280;45684;48.358;10.746;2023-04-16T00:18:34;95986.41;;;6.25;100.00
10014;BME280;45684;48.358;10.746;2023-04-16T00:21:02;95984.75;;;6.29;100.00
10014;BME280;45684;48.358;10.746;2023-04-16T00:23:31;95989.09;;;6.25;100.00
10014;BME280;45684;48.358;10.746;2023-04-16T00:25:58;95989.09;;;6.25;100.00
10014;BME280;45684;48.358;10.746;2023-04-16T00:28:28;95992.00;;;6.28;100.00
10014;BME280;45684;48.358;10.746;2023-04-16T00:30:56;95990.34;;;6.32;100.00
10014;BME280;45684;48.358;10.746;2023-04-16T00:33:23;95989.53;;;6.32;100.00
10014;BME280;45684;48.358;10.746;2023-04-16T00:35:51;95990.13;;;6.29;100.00
10014;BME280;45684;48.358;10.746;2023-04-16T00:38:19;95992.09;;;6.23;100.00
10014;BME280;45684;48.358;10.746;2023-04-16T00:40:47;95995.31;;;6.25;100.00
10014;BME280;45684;48.358;10.746;2023-04-16T00:43:20;95987.97;;;6.31;100.00
10014;BME280;45684;48.358;10.746;2023-04-16T00:45:50;95988.91;;;6.21;100.00
10014;BME280;45684;48.358;10.746;2023-04-16T00:48:19;95997.25;;;6.20;100.00
10014;BME280;45684;48.358;10.746;2023-04-16T00:50:47;95992.03;;;6.09;100.00
10014;BME280;45684;48.358;10.746;2023-04-16T00:53:15;95987.09;;;6.17;100.00
10014;BME280;45684;48.358;10.746;2023-04-16T00:55:43;95995.09;;;6.22;100.00
10014;BME280;45684;48.358;10.746;2023-04-16T00:58:11;95991.69;;;6.16;100.00
10014;BME280;45684;48.358;10.746;2023-04-16T01:00:39;95991.75;;;6.11;100.00
10014;BME280;45684;48.358;10.746;2023-04-16T01:03:09;95991.38;;;6.18;100.00
10014;BME280;45684;48.358;10.746;2023-04-16T01:05:37;95995.72;;;6.13;100.00
10014;BME280;45684;48.358;10.746;2023-04-16T01:08:05;95989.88;;;6.11;100.00
10014;BME280;45684;48.358;10.746;2023-04-16T01:10:33;95995.81;;;6.08;100.00
10014;BME280;45684;48.358;10.746;2023-04-16T01:13:01;95992.69;;;6.01;100.00
10014;BME280;45684;48.358;10.746;2023-04-16T01:15:29;95990.44;;;6.08;100.00
10014;BME280;45684;48.358;10.746;2023-04-16T01:17:57;95993.13;;;6.08;100.00
10014;BME280;45684;48.358;10.746;2023-04-16T01:20:26;96001.31;;;6.17;100.00
10014;BME280;45684;48.358;10.746;2023-04-16T01:22:55;95995.44;;;6.15;100.00
10014;BME280;45684;48.358;10.746;2023-04-16T01:25:23;95990.38;;;6.13;100.00
10014;BME280;45684;48.358;10.746;2023-04-16T01:27:51;95992.19;;;6.18;100.00
10014;BME280;45684;48.358;10.746;2023-04-16T01:30:20;95991.06;;;6.19;100.00
10014;BME280;45684;48.358;10.746;2023-04-16T01:32:59;95995.97;;;6.17;100.00
10014;BME280;45684;48.358;10.746;2023-04-16T01:35:28;95988.69;;;6.18;100.00
10014;BME280;45684;48.358;10.746;2023-04-16T01:37:57;95995.72;;;6.13;100.00
10014;BME280;45684;48.358;10.746;2023-04-16T01:40:25;95997.84;;;6.17;100.00
10014;BME280;45684;48.358;10.746;2023-04-16T01:42:53;95994.06;;;6.18;100.00
10014;BME280;45684;48.358;10.746;2023-04-16T01:45:20;95997.25;;;6.20;100.00
10014;BME280;45684;48.358;10.746;2023-04-16T01:47:48;95999.66;;;6.21;100.00
10014;BME280;45684;48.358;10.746;2023-04-16T01:50:17;96005.38;;;6.14;100.00
10014;BME280;45684;48.358;10.746;2023-04-16T01:52:45;96008.59;;;6.17;100.00
10014;BME280;45684;48.358;10.746;2023-04-16T01:55:14;96001.47;;;6.26;100.00
10014;BME280;45684;48.358;10.746;2023-04-16T01:57:42;96003.63;;;6.24;100.00
10014;BME280;45684;48.358;10.746;2023-04-16T02:00:12;96003.63;;;6.24;100.00
10014;BME280;45684;48.358;10.746;2023-04-16T02:02:45;96004.72;;;6.23;100.00
10014;BME280;45684;48.358;10.746;2023-04-16T02:05:22;96010.41;;;6.21;100.00
10014;BME280;45684;48.358;10.746;2023-04-16T02:07:50;96009.38;;;6.17;100.00
10014;BME280;45684;48.358;10.746;2023-04-16T02:10:19;96011.53;;;6.15;100.00
10014;BME280;45684;48.358;10.746;2023-04-16T02:12:47;96009.38;;;6.17;100.00
10014;BME280;45684;48.358;10.746;2023-04-16T02:15:15;96014.03;;;6.11;100.00
10014;BME280;45684;48.358;10.746;2023-04-16T02:17:44;96011.28;;;6.17;100.00
10014;BME280;45684;48.358;10.746;2023-04-16T02:20:14;96007.56;;;6.12;100.00
10014;BME280;45684;48.358;10.746;2023-04-16T02:22:51;96006.16;;;6.15;100.00
10014;BME280;45684;48.358;10.746;2023-04-16T02:25:23;96004.88;;;6.12;100.00
10014;BME280;45684;48.358;10.746;2023-04-16T02:27:53;96005.38;;;6.14;100.00
10014;BME280;45684;48.358;10.746;2023-04-16T02:30:28;96009.38;;;6.17;100.00
10014;BME280;45684;48.358;10.746;2023-04-16T02:32:56;96006.16;;;6.15;100.00
10014;BME280;45684;48.358;10.746;2023-04-16T02:35:24;96007.56;;;6.12;100.00
10014;BME280;45684;48.358;10.746;2023-04-16T02:37:52;96002.19;;;6.12;100.00
10014;BME280;45684;48.358;10.746;2023-04-16T02:40:20;96002.63;;;6.20;100.00
10014;BME280;45684;48.358;10.746;2023-04-16T02:42:49;96003.22;;;6.17;100.00
10014;BME280;45684;48.358;10.746;2023-04-16T02:45:18;96002.69;;;6.14;100.00
10014;BME280;45684;48.358;10.746;2023-04-16T02:47:46;96009.94;;;6.14;100.00
10014;BME280;45684;48.358;10.746;2023-04-16T02:50:14;96005.69;;;6.13;100.00
10014;BME280;45684;48.358;10.746;2023-04-16T02:52:42;95998.41;;;6.13;100.00
10014;BME280;45684;48.358;10.746;2023-04-16T02:55:10;96002.13;;;6.18;100.00
10014;BME280;45684;48.358;10.746;2023-04-16T02:57:38;96007.19;;;6.19;100.00
10014;BME280;45684;48.358;10.746;2023-04-16T03:00:10;96003.44;;;6.20;100.00
10014;BME280;45684;48.358;10.746;2023-04-16T03:02:38;95999.81;;;6.11;100.00
10014;BME280;45684;48.358;10.746;2023-04-16T03:05:07;96005.59;;;6.18;100.00
10014;BME280;45684;48.358;10.746;2023-04-16T03:07:35;96004.59;;;6.14;100.00
10014;BME280;45684;48.358;10.746;2023-04-16T03:10:06;96005.91;;;6.17;100.00
10014;BME280;45684;48.358;10.746;2023-04-16T03:12:34;96004.34;;;6.10;100.00
10014;BME280;45684;48.358;10.746;2023-04-16T03:15:06;96011.03;;;6.13;100.00
10014;BME280;45684;48.358;10.746;2023-04-16T03:17:35;96020.34;;;6.21;100.00
10014;BME280;45684;48.358;10.746;2023-04-16T03:20:04;96021.47;;;6.14;100.00
10014;BME280;45684;48.358;10.746;2023-04-16T03:22:32;96012.94;;;6.12;100.00
10014;BME280;45684;48.358;10.746;2023-04-16T03:25:00;96013.66;;;6.18;100.00
10014;BME280;45684;48.358;10.746;2023-04-16T03:27:29;96012.28;;;6.21;100.00
10014;BME280;45684;48.358;10.746;2023-04-16T03:29:57;96020.91;;;6.18;100.00
10014;BME280;45684;48.358;10.746;2023-04-16T03:32:32;96017.13;;;6.19;100.00
10014;BME280;45684;48.358;10.746;2023-04-16T03:35:03;96026.28;;;6.18;100.00
10014;BME280;45684;48.358;10.746;2023-04-16T03:37:31;96027.31;;;6.22;100.00
10014;BME280;45684;48.358;10.746;2023-04-16T03:39:59;96030.28;;;6.20;100.00
10014;BME280;45684;48.358;10.746;2023-04-16T03:42:27;96029.47;;;6.20;100.00
10014;BME280;45684;48.358;10.746;2023-04-16T03:44:56;96034.91;;;6.14;100.00
10014;BME280;45684;48.358;10.746;2023-04-16T03:47:25;96025.41;;;6.22;100.00
10014;BME280;45684;48.358;10.746;2023-04-16T03:49:57;96026.69;;;6.25;100.00
10014;BME280;45684;48.358;10.746;2023-04-16T03:52:27;96026.13;;;6.28;100.00
10014;BME280;45684;48.358;10.746;2023-04-16T03:54:55;96032.06;;;6.25;100.00
10014;BME280;45684;48.358;10.746;2023-04-16T03:57:26;96035.84;;;6.24;100.00
10014;BME280;45684;48.358;10.746;2023-04-16T03:59:59;96030.41;;;6.29;100.00
10014;BME280;45684;48.358;10.746;2023-04-16T04:02:39;96036.88;;;6.28;100.00
10014;BME280;45684;48.358;10.746;2023-04-16T04:05:15;96030.13;;;6.30;100.00
10014;BME280;45684;48.358;10.746;2023-04-16T04:07:45;96042.16;;;6.33;100.00
10014;BME280;45684;48.358;10.746;2023-04-16T04:10:13;96030.22;;;6.25;100.00
10014;BME280;45684;48.358;10.746;2023-04-16T04:12:42;96043.25;;;6.32;100.00
10014;BME280;45684;48.358;10.746;2023-04-16T04:15:11;96046.66;;;6.37;100.00
10014;BME280;45684;48.358;10.746;2023-04-16T04:17:41;96044.84;;;6.33;100.00
10014;BME280;45684;48.358;10.746;2023-04-16T04:20:10;96042.16;;;6.33;100.00
10014;BME280;45684;48.358;10.746;2023-04-16T04:22:40;96051.00;;;6.33;100.00
10014;BME280;45684;48.358;10.746;2023-04-16T04:25:09;96053.25;;;6.45;100.00
10014;BME280;45684;48.358;10.746;2023-04-16T04:27:37;96048.06;;;6.35;100.00
10014;BME280;45684;48.358;10.746;2023-04-16T04:30:07;96052.03;;;6.37;100.00
10014;BME280;45684;48.358;10.746;2023-04-16T04:32:35;96047.03;;;6.31;100.00
10014;BME280;45684;48.358;10.746;2023-04-16T04:35:04;96050.22;;;6.33;100.00
10014;BME280;45684;48.358;10.746;2023-04-16T04:37:32;96052.19;;;6.27;100.00
10014;BME280;45684;48.358;10.746;2023-04-16T04:40:09;96054.00;;;6.32;100.00
10014;BME280;45684;48.358;10.746;2023-04-16T04:42:37;96052.03;;;6.37;100.00
10014;BME280;45684;48.358;10.746;2023-04-16T04:45:06;96053.59;;;6.38;100.00
10014;BME280;45684;48.358;10.746;2023-04-16T04:47:34;96056.50;;;6.42;100.00
10014;BME280;45684;48.358;10.746;2023-04-16T04:50:02;96064.44;;;6.33;100.00
10014;BME280;45684;48.358;10.746;2023-04-16T04:52:31;96063.84;;;6.36;100.00
10014;BME280;45684;48.358;10.746;2023-04-16T04:55:01;96061.41;;;6.40;100.00
10014;BME280;45684;48.358;10.746;2023-04-16T04:57:30;96065.38;;;6.43;100.00
10014;BME280;45684;48.358;10.746;2023-04-16T04:59:58;96072.06;;;6.45;100.00
10014;BME280;45684;48.358;10.746;2023-04-16T05:02:37;96067.09;;;6.52;100.00
10014;BME280;45684;48.358;10.746;2023-04-16T05:05:05;96073.16;;;6.44;100.00
10014;BME280;45684;48.358;10.746;2023-04-16T05:07:33;96068.56;;;6.45;100.00
10014;BME280;45684;48.358;10.746;2023-04-16T05:10:01;96076.13;;;6.43;100.00
10014;BME280;45684;48.358;10.746;2023-04-16T05:12:30;96079.59;;;6.43;100.00
10014;BME280;45684;48.358;10.746;2023-04-16T05:14:58;96077.84;;;6.52;100.00
10014;BME280;45684;48.358;10.746;2023-04-16T05:17:26;96077.28;;;6.55;100.00
10014;BME280;45684;48.358;10.746;2023-04-16T05:19:54;96073.22;;;6.58;100.00
10014;BME280;45684;48.358;10.746;2023-04-16T05:22:22;96078.84;;;6.56;100.00
10014;BME280;45684;48.358;10.746;2023-04-16T05:24:49;96075.28;;;6.61;100.00
10014;BME280;45684;48.358;10.746;2023-04-16T05:27:17;96085.16;;;6.65;100.00
10014;BME280;45684;48.358;10.746;2023-04-16T05:29:46;96083.50;;;6.70;100.00
10014;BME280;45684;48.358;10.746;2023-04-16T05:32:14;96090.31;;;6.81;100.00
10014;BME280;45684;48.358;10.746;2023-04-16T05:34:42;96092.00;;;6.77;100.00
10014;BME280;45684;48.358;10.746;2023-04-16T05:37:10;96093.59;;;6.78;100.00
10014;BME280;45684;48.358;10.746;2023-04-16T05:39:37;96090.19;;;6.72;100.00
10014;BME280;45684;48.358;10.746;2023-04-16T05:42:05;96091.56;;;6.70;100.00
10014;BME280;45684;48.358;10.746;2023-04-16T05:44:33;96092.34;;;6.70;100.00
10014;BME280;45684;48.358;10.746;2023-04-16T05:47:02;96093.16;;;6.71;100.00
10014;BME280;45684;48.358;10.746;2023-04-16T05:49:30;96088.63;;;6.85;100.00
10014;BME280;45684;48.358;10.746;2023-04-16T05:51:57;96087.91;;;6.79;100.00
10014;BME280;45684;48.358;10.746;2023-04-16T05:54:25;96096.06;;;6.74;100.00
10014;BME280;45684;48.358;10.746;2023-04-16T05:56:53;96100.94;;;6.72;100.00
10014;BME280;45684;48.358;10.746;2023-04-16T05:59:22;96101.56;;;6.83;100.00
10014;BME280;45684;48.358;10.746;2023-04-16T06:01:49;96101.38;;;6.93;100.00
10014;BME280;45684;48.358;10.746;2023-04-16T06:04:18;96106.75;;;6.93;100.00
10014;BME280;45684;48.358;10.746;2023-04-16T06:06:46;96099.22;;;6.95;100.00
10014;BME280;45684;48.358;10.746;2023-04-16T06:09:14;96110.28;;;7.07;100.00
10014;BME280;45684;48.358;10.746;2023-04-16T06:11:42;96109.31;;;7.17;100.00
10014;BME280;45684;48.358;10.746;2023-04-16T06:14:10;96109.72;;;7.10;100.00
10014;BME280;45684;48.358;10.746;2023-04-16T06:16:38;96109.31;;;7.17;100.00
10014;BME280;45684;48.358;10.746;2023-04-16T06:19:06;96110.44;;;7.30;100.00
10014;BME280;45684;48.358;10.746;2023-04-16T06:21:36;96117.84;;;7.38;100.00
10014;BME280;45684;48.358;10.746;2023-04-16T06:24:04;96122.59;;;7.41;100.00
10014;BME280;45684;48.358;10.746;2023-04-16T06:26:32;96118.97;;;7.51;100.00
10014;BME280;45684;48.358;10.746;2023-04-16T06:29:00;96117.03;;;7.37;100.00
10014;BME280;45684;48.358;10.746;2023-04-16T06:31:28;96118.41;;;7.35;100.00
10014;BME280;45684;48.358;10.746;2023-04-16T06:33:56;96115.94;;;7.38;100.00
10014;BME280;45684;48.358;10.746;2023-04-16T06:36:24;96118.59;;;7.25;100.00
10014;BME280;45684;48.358;10.746;2023-04-16T06:38:54;96114.44;;;7.32;100.00
10014;BME280;45684;48.358;10.746;2023-04-16T06:41:22;96123.22;;;7.38;100.00
10014;BME280;45684;48.358;10.746;2023-04-16T06:43:52;96122.22;;;7.48;100.00
10014;BME280;45684;48.358;10.746;2023-04-16T06:46:19;96121.63;;;7.64;100.00
10014;BME280;45684;48.358;10.746;2023-04-16T06:48:47;96116.25;;;7.78;100.00
10014;BME280;45684;48.358;10.746;2023-04-16T06:51:15;96120.06;;;7.91;100.00
10014;BME280;45684;48.358;10.746;2023-04-16T06:53:43;96117.88;;;7.93;100.00
10014;BME280;45684;48.358;10.746;2023-04-16T06:56:12;96115.34;;;8.10;100.00
10014;BME280;45684;48.358;10.746;2023-04-16T06:58:40;96109.84;;;8.15;100.00
10014;BME280;45684;48.358;10.746;2023-04-16T07:01:07;96122.63;;;7.96;100.00
10014;BME280;45684;48.358;10.746;2023-04-16T07:03:35;96117.25;;;7.96;100.00
10014;BME280;45684;48.358;10.746;2023-04-16T07:06:04;96118.94;;;7.92;100.00
10014;BME280;45684;48.358;10.746;2023-04-16T07:08:31;96122.16;;;7.94;100.00
10014;BME280;45684;48.358;10.746;2023-04-16T07:10:59;96115.25;;;8.02;100.00
10014;BME280;45684;48.358;10.746;2023-04-16T07:13:32;96111.06;;;8.09;100.00
10014;BME280;45684;48.358;10.746;2023-04-16T07:16:00;96107.09;;;8.07;100.00
10014;BME280;45684;48.358;10.746;2023-04-16T07:18:28;96108.47;;;8.18;100.00
10014;BME280;45684;48.358;10.746;2023-04-16T07:20:56;96110.44;;;8.26;100.00
10014;BME280;45684;48.358;10.746;2023-04-16T07:23:23;96120.44;;;8.26;100.00
10014;BME280;45684;48.358;10.746;2023-04-16T07:25:51;96117.13;;;8.29;100.00
10014;BME280;45684;48.358;10.746;2023-04-16T07:28:19;96105.84;;;8.27;100.00
10014;BME280;45684;48.358;10.746;2023-04-16T07:30:48;96119.31;;;8.27;100.00
10014;BME280;45684;48.358;10.746;2023-04-16T07:33:16;96120.13;;;8.41;100.00
10014;BME280;45684;48.358;10.746;2023-04-16T07:35:44;96122.22;;;8.44;100.00
10014;BME280;45684;48.358;10.746;2023-04-16T07:38:12;96119.22;;;8.46;100.00
10014;BME280;45684;48.358;10.746;2023-04-16T07:40:40;96121.09;;;8.45;100.00
10014;BME280;45684;48.358;10.746;2023-04-16T07:43:07;96130.00;;;8.46;100.00
10014;BME280;45684;48.358;10.746;2023-04-16T07:45:36;96128.81;;;8.38;100.00
10014;BME280;45684;48.358;10.746;2023-04-16T07:48:05;96133.09;;;8.39;100.00
10014;BME280;45684;48.358;10.746;2023-04-16T07:50:33;96128.88;;;8.33;100.00
10014;BME280;45684;48.358;10.746;2023-04-16T07:53:00;96129.38;;;8.35;100.00
10014;BME280;45684;48.358;10.746;2023-04-16T07:55:28;96135.56;;;8.49;100.00
10014;BME280;45684;48.358;10.746;2023-04-16T07:57:56;96137.19;;;8.36;100.00
10014;BME280;45684;48.358;10.746;2023-04-16T08:00:24;96132.16;;;8.43;100.00
10014;BME280;45684;48.358;10.746;2023-04-16T08:02:53;96132.75;;;8.54;100.00
10014;BME280;45684;48.358;10.746;2023-04-16T08:05:28;96138.41;;;8.66;100.00
10014;BME280;45684;48.358;10.746;2023-04-16T08:07:55;96143.44;;;8.59;100.00
10014;BME280;45684;48.358;10.746;2023-04-16T08:10:23;96146.00;;;8.64;100.00
10014;BME280;45684;48.358;10.746;2023-04-16T08:12:51;96148.72;;;8.64;100.00
10014;BME280;45684;48.358;10.746;2023-04-16T08:15:19;96151.88;;;8.66;100.00
10014;BME280;45684;48.358;10.746;2023-04-16T08:17:47;96149.69;;;8.68;100.00
10014;BME280;45684;48.358;10.746;2023-04-16T08:20:15;96162.53;;;8.72;100.00
10014;BME280;45684;48.358;10.746;2023-04-16T08:22:46;96156.69;;;8.69;100.00
10014;BME280;45684;48.358;10.746;2023-04-16T08:25:14;96161.75;;;8.71;100.00
10014;BME280;45684;48.358;10.746;2023-04-16T08:27:42;96159.56;;;8.73;100.00
10014;BME280;45684;48.358;10.746;2023-04-16T08:30:10;96167.91;;;8.85;100.00
10014;BME280;45684;48.358;10.746;2023-04-16T08:32:38;96175.19;;;8.85;100.00
10014;BME280;45684;48.358;10.746;2023-04-16T08:35:07;96170.38;;;8.96;100.00
10014;BME280;45684;48.358;10.746;2023-04-16T08:37:34;96169.03;;;9.07;100.00
10014;BME280;45684;48.358;10.746;2023-04-16T08:40:05;96163.13;;;9.27;100.00
10014;BME280;45684;48.358;10.746;2023-04-16T08:42:36;96173.38;;;9.39;100.00
10014;BME280;45684;48.358;10.746;2023-04-16T08:45:07;96176.13;;;9.48;100.00
10014;BME280;45684;48.358;10.746;2023-04-16T08:47:40;96179.88;;;9.69;100.00
10014;BME280;45684;48.358;10.746;2023-04-16T08:50:10;96180.88;;;9.73;100.00
10014;BME280;45684;48.358;10.746;2023-04-16T08:52:44;96183.47;;;9.87;100.00
10014;BME280;45684;48.358;10.746;2023-04-16T08:55:15;96184.00;;;9.97;100.00
10014;BME280;45684;48.358;10.746;2023-04-16T08:57:46;96192.41;;;10.27;100.00
10014;BME280;45684;48.358;10.746;2023-04-16T09:00:15;96193.47;;;10.17;100.00
10014;BME280;45684;48.358;10.746;2023-04-16T09:02:43;96185.38;;;10.17;100.00
10014;BME280;45684;48.358;10.746;2023-04-16T09:05:14;96197.91;;;10.13;100.00
10014;BME280;45684;48.358;10.746;2023-04-16T09:07:44;96199.50;;;10.14;100.00
10014;BME280;45684;48.358;10.746;2023-04-16T09:10:14;96196.03;;;10.22;100.00
10014;BME280;45684;48.358;10.746;2023-04-16T09:12:42;96201.78;;;10.30;100.00
10014;BME280;45684;48.358;10.746;2023-04-16T09:15:11;96191.50;;;10.40;100.00
10014;BME280;45684;48.358;10.746;2023-04-16T09:17:39;96195.34;;;10.08;100.00
10014;BME280;45684;48.358;10.746;2023-04-16T09:20:08;96203.22;;;10.27;100.00
10014;BME280;45684;48.358;10.746;2023-04-16T09:22:36;96200.91;;;10.52;100.00
10014;BME280;45684;48.358;10.746;2023-04-16T09:25:06;96202.66;;;10.56;100.00
10014;BME280;45684;48.358;10.746;2023-04-16T09:27:35;96208.25;;;10.60;100.00
10014;BME280;45684;48.358;10.746;2023-04-16T09:30:17;96204.78;;;10.68;100.00
10014;BME280;45684;48.358;10.746;2023-04-16T09:32:47;96201.41;;;10.62;100.00
10014;BME280;45684;48.358;10.746;2023-04-16T09:35:17;96206.06;;;10.79;100.00
10014;BME280;45684;48.358;10.746;2023-04-16T09:37:54;96204.94;;;10.89;100.00
10014;BME280;45684;48.358;10.746;2023-04-16T09:40:23;96206.38;;;10.78;100.00
10014;BME280;45684;48.358;10.746;2023-04-16T09:42:56;96204.94;;;10.89;100.00
10014;BME280;45684;48.358;10.746;2023-04-16T09:45:24;96211.97;;;11.07;100.00
10014;BME280;45684;48.358;10.746;2023-04-16T09:47:51;96213.09;;;11.06;100.00
10014;BME280;45684;48.358;10.746;2023-04-16T09:50:19;96220.56;;;11.18;100.00
10014;BME280;45684;48.358;10.746;2023-04-16T09:52:48;96221.53;;;11.31;100.00
10014;BME280;45684;48.358;10.746;2023-04-16T09:55:21;96218.66;;;11.44;100.00
10014;BME280;45684;48.358;10.746;2023-04-16T09:57:58;96218.81;;;11.48;100.00
10014;BME280;45684;48.358;10.746;2023-04-16T10:00:28;96221.34;;;11.44;100.00
10014;BME280;45684;48.358;10.746;2023-04-16T10:03:02;96228.50;;;11.23;100.00
10014;BME280;45684;48.358;10.746;2023-04-16T10:05:31;96220.88;;;10.99;100.00
10014;BME280;45684;48.358;10.746;2023-04-16T10:07:59;96224.38;;;10.99;100.00
10014;BME280;45684;48.358;10.746;2023-04-16T10:10:28;96226.59;;;10.89;100.00
10014;BME280;45684;48.358;10.746;2023-04-16T10:12:56;96220.38;;;10.88;100.00
10014;BME280;45684;48.358;10.746;2023-04-16T10:15:26;96220.56;;;11.09;100.00
10014;BME280;45684;48.358;10.746;2023-04-16T10:17:54;96232.66;;;11.20;100.00
10014;BME280;45684;48.358;10.746;2023-04-16T10:20:23;96230.56;;;11.00;100.00
10014;BME280;45684;48.358;10.746;2023-04-16T10:22:53;96232.16;;;10.84;100.00
10014;BME280;45684;48.358;10.746;2023-04-16T10:25:21;96235.69;;;11.10;100.00
10014;BME280;45684;48.358;10.746;2023-04-16T10:27:50;96236.63;;;11.14;100.00
10014;BME280;45684;48.358;10.746;2023-04-16T10:30:18;96231.38;;;11.27;100.00
10014;BME280;45684;48.358;10.746;2023-04-16T10:32:48;96229.31;;;11.32;100.00
10014;BME280;45684;48.358;10.746;2023-04-16T10:35:18;96238.06;;;11.03;100.00
10014;BME280;45684;48.358;10.746;2023-04-16T10:37:46;96239.50;;;10.92;100.00
10014;BME280;45684;48.358;10.746;2023-04-16T10:40:24;96239.63;;;10.95;100.00
10014;BME280;45684;48.358;10.746;2023-04-16T10:42:54;96250.63;;;10.99;100.00
10014;BME280;45684;48.358;10.746;2023-04-16T10:45:28;96246.31;;;10.89;100.00
10014;BME280;45684;48.358;10.746;2023-04-16T10:47:57;96239.25;;;10.62;100.00
10014;BME280;45684;48.358;10.746;2023-04-16T10:50:33;96247.53;;;10.66;100.00
10014;BME280;45684;48.358;10.746;2023-04-16T10:53:18;96245.16;;;10.64;100.00
10014;BME280;45684;48.358;10.746;2023-04-16T10:55:57;96249.59;;;10.60;100.00
10014;BME280;45684;48.358;10.746;2023-04-16T10:58:26;96244.53;;;10.59;100.00
10014;BME280;45684;48.358;10.746;2023-04-16T11:00:58;96247.69;;;10.61;100.00
10014;BME280;45684;48.358;10.746;2023-04-16T11:03:30;96246.22;;;10.46;100.00
10014;BME280;45684;48.358;10.746;2023-04-16T11:06:09;96247.34;;;10.45;100.00
10014;BME280;45684;48.358;10.746;2023-04-16T11:08:38;96249.22;;;10.36;100.00
10014;BME280;45684;48.358;10.746;2023-04-16T11:11:22;96251.22;;;10.30;100.00
10014;BME280;45684;48.358;10.746;2023-04-16T11:13:54;96251.09;;;10.27;100.00
10014;BME280;45684;48.358;10.746;2023-04-16T11:16:24;96245.69;;;10.27;100.00
10014;BME280;45684;48.358;10.746;2023-04-16T11:18:55;96253.66;;;10.32;100.00
10014;BME280;45684;48.358;10.746;2023-04-16T11:21:23;96253.28;;;10.25;100.00
10014;BME280;45684;48.358;10.746;2023-04-16T11:23:52;96243.34;;;10.11;100.00
10014;BME280;45684;48.358;10.746;2023-04-16T11:26:24;96251.31;;;10.16;100.00
10014;BME280;45684;48.358;10.746;2023-04-16T11:28:54;96249.56;;;10.12;100.00
10014;BME280;45684;48.358;10.746;2023-04-16T11:31:22;96241.34;;;10.26;100.00
10014;BME280;45684;48.358;10.746;2023-04-16T11:33:55;96245.72;;;10.35;100.00
10014;BME280;45684;48.358;10.746;2023-04-16T11:36:23;96253.16;;;10.30;100.00
10014;BME280;45684;48.358;10.746;2023-04-16T11:39:00;96254.25;;;10.29;100.00
10014;BME280;45684;48.358;10.746;2023-04-16T11:41:30;96251.47;;;10.51;100.00
10014;BME280;45684;48.358;10.746;2023-04-16T11:43:58;96251.31;;;10.47;100.00
10014;BME280;45684;48.358;10.746;2023-04-16T11:46:36;96253.13;;;10.69;100.00
10014;BME280;45684;48.358;10.746;2023-04-16T11:49:06;96257.75;;;10.86;100.00
10014;BME280;45684;48.358;10.746;2023-04-16T11:51:38;96269.41;;;10.87;100.00
10014;BME280;45684;48.358;10.746;2023-04-16T11:54:07;96265.25;;;10.89;100.00
10014;BME280;45684;48.358;10.746;2023-04-16T11:56:37;96270.69;;;10.98;100.00
10014;BME280;45684;48.358;10.746;2023-04-16T11:59:13;96264.28;;;10.85;100.00
10014;BME280;45684;48.358;10.746;2023-04-16T12:01:44;96257.41;;;10.70;100.00
10014;BME280;45684;48.358;10.746;2023-04-16T12:04:15;96268.59;;;10.86;100.00
10014;BME280;45684;48.358;10.746;2023-04-16T12:07:04;96265.75;;;10.91;100.00
10014;BME280;45684;48.358;10.746;2023-04-16T12:09:32;96267.03;;;11.03;100.00
10014;BME280;45684;48.358;10.746;2023-04-16T12:12:06;96263.53;;;11.28;100.00
10014;BME280;45684;48.358;10.746;2023-04-16T12:14:52;96261.34;;;11.47;100.00
10014;BME280;45684;48.358;10.746;2023-04-16T12:17:22;96258.59;;;11.73;100.00
10014;BME280;45684;48.358;10.746;2023-04-16T12:19:55;96261.91;;;12.14;100.00
10014;BME280;45684;48.358;10.746;2023-04-16T12:22:27;96261.78;;;12.40;100.00
10014;BME280;45684;48.358;10.746;2023-04-16T12:24:57;96273.06;;;12.59;100.00
10014;BME280;45684;48.358;10.746;2023-04-16T12:27:40;96279.47;;;12.55;100.00
10014;BME280;45684;48.358;10.746;2023-04-16T12:30:09;96285.38;;;12.77;100.00
10014;BME280;45684;48.358;10.746;2023-04-16T12:32:37;96280.72;;;12.57;100.00
10014;BME280;45684;48.358;10.746;2023-04-16T12:35:07;96279.97;;;12.39;100.00
10014;BME280;45684;48.358;10.746;2023-04-16T12:37:36;96281.16;;;12.21;100.00
10014;BME280;45684;48.358;10.746;2023-04-16T12:40:05;96273.25;;;11.98;100.00
10014;BME280;45684;48.358;10.746;2023-04-16T12:42:34;96279.47;;;11.90;100.00
10014;BME280;45684;48.358;10.746;2023-04-16T12:45:03;96279.63;;;11.59;100.00
10014;BME280;45684;48.358;10.746;2023-04-16T12:47:31;96268.47;;;12.04;100.00
10014;BME280;45684;48.358;10.746;2023-04-16T12:49:59;96284.44;;;12.35;100.00
10014;BME280;45684;48.358;10.746;2023-04-16T12:52:28;96286.19;;;12.40;100.00
10014;BME280;45684;48.358;10.746;2023-04-16T12:54:56;96277.09;;;12.44;100.00
10014;BME280;45684;48.358;10.746;2023-04-16T12:57:24;96285.91;;;12.71;100.00
10014;BME280;45684;48.358;10.746;2023-04-16T12:59:54;96286.63;;;12.59;100.00